Main page
METAR-TAF:

METAR-TAF

Airports :

Jesse Viertel Memorial Airport

Boonville, Missouri, United States

latitude: 38-56-48N, longitude: 092-40-58W, elevation: 715 ft

Current weather observation

The report was made 29 minutes ago, at 04:15 UTC
Wind 3 mph from the North/Northeast
Temperature 77°F
Humidity 89%
Pressure 30.22 in. Hg
Visibility: 10 miles
Clear sky

METAR: KVER 200415Z AUTO 03003KT 10SM CLR 25/23 A3022 RMK AO2 T02490231

Time: 23:44 (04:44 UTC)


TAF: missing

Weather observations and forecasts of more than 4000 airports (METAR and TAF reports).

The available stations are represented by yellow and red dots on the map.

Hover mouse over dot to see the name of the station.

Then click to see weather observations and forecasts.

To change the map : click on the green buttons with a black cross to zoom in, on the green button with a dash to zoom out, or on the green arrows for adjacent maps.


METAR-TAF: